createdAt,value
2022-11-23T00:03:01.716Z,7
2022-11-23T00:08:01.749Z,5
2022-11-23T00:13:01.863Z,4
2022-11-23T00:18:01.758Z,2
2022-11-23T00:23:01.326Z,3
2022-11-23T00:28:02.436Z,3
2022-11-23T00:33:01.256Z,3
2022-11-23T00:38:01.790Z,3
2022-11-23T00:43:02.385Z,3
2022-11-23T00:48:02.288Z,3
2022-11-23T00:53:01.781Z,4
2022-11-23T00:58:01.257Z,3
2022-11-23T01:03:01.842Z,3
2022-11-23T01:08:02.460Z,2
2022-11-23T01:13:02.373Z,2
2022-11-23T01:18:01.320Z,3
2022-11-23T01:23:01.770Z,3
2022-11-23T01:28:01.331Z,3
2022-11-23T01:33:01.330Z,5
2022-11-23T01:38:01.349Z,4
2022-11-23T01:43:01.818Z,3
2022-11-23T01:48:02.448Z,4
2022-11-23T01:53:01.862Z,3
2022-11-23T01:58:02.448Z,4
2022-11-23T02:03:01.984Z,3
2022-11-23T02:08:17.965Z,3
2022-11-23T02:13:01.383Z,4
2022-11-23T02:18:02.565Z,3
2022-11-23T02:23:02.609Z,3
2022-11-23T02:28:02.034Z,3
2022-11-23T02:33:01.429Z,3
2022-11-23T02:38:01.919Z,3
2022-11-23T02:43:01.945Z,3
2022-11-23T02:48:01.981Z,2
2022-11-23T02:53:01.938Z,4
2022-11-23T02:58:01.474Z,4
2022-11-23T03:03:02.805Z,4
2022-11-23T03:08:02.233Z,5
2022-11-23T03:13:02.096Z,5
2022-11-23T03:18:02.080Z,5
2022-11-23T03:23:02.613Z,4
2022-11-23T03:28:02.045Z,5
2022-11-23T03:33:01.995Z,5
2022-11-23T03:38:02.125Z,4
2022-11-23T03:43:02.752Z,5
2022-11-23T03:48:02.080Z,6
2022-11-23T03:53:02.668Z,5
2022-11-23T03:58:01.552Z,6
2022-11-23T04:03:02.080Z,5
2022-11-23T04:08:01.568Z,5
2022-11-23T04:13:01.554Z,5
2022-11-23T04:18:02.739Z,5
2022-11-23T04:23:02.187Z,4
2022-11-23T04:28:02.833Z,5
2022-11-23T04:33:02.224Z,5
2022-11-23T04:38:01.627Z,5
2022-11-23T04:43:02.296Z,5
2022-11-23T04:48:02.894Z,6
2022-11-23T04:53:02.151Z,5
2022-11-23T04:58:02.254Z,6
2022-11-23T05:03:01.663Z,5
2022-11-23T05:08:02.917Z,5
2022-11-23T05:13:02.233Z,5
2022-11-23T05:18:02.224Z,5
2022-11-23T05:23:02.232Z,5
2022-11-23T05:28:11.286Z,5
2022-11-23T05:33:02.267Z,6
2022-11-23T05:38:02.327Z,6
2022-11-23T05:43:02.972Z,6
2022-11-23T05:48:02.454Z,5
2022-11-23T05:53:02.376Z,6
2022-11-23T05:58:02.400Z,7
2022-11-23T06:03:01.793Z,7
2022-11-23T06:08:02.427Z,5
2022-11-23T06:13:03.079Z,7
2022-11-23T06:18:02.375Z,7
2022-11-23T06:23:03.001Z,6
2022-11-23T06:28:03.071Z,8
2022-11-23T06:33:01.845Z,6
2022-11-23T06:38:01.842Z,6
2022-11-23T06:43:01.845Z,6
2022-11-23T06:48:03.132Z,6
2022-11-23T06:53:02.362Z,7
2022-11-23T06:58:02.505Z,7
2022-11-23T07:03:03.070Z,8
2022-11-23T07:08:02.409Z,7
2022-11-23T07:13:03.016Z,6
2022-11-23T07:18:02.446Z,8
2022-11-23T07:23:02.612Z,7
2022-11-23T07:28:02.424Z,9
2022-11-23T07:33:02.428Z,7
2022-11-23T07:38:02.445Z,8
2022-11-23T07:43:01.978Z,6
2022-11-23T07:48:02.507Z,7
2022-11-23T07:53:03.120Z,18
2022-11-23T07:58:02.521Z,7
2022-11-23T08:03:26.489Z,6
2022-11-23T08:08:02.539Z,8
2022-11-23T08:13:02.527Z,6
2022-11-23T08:18:02.604Z,5
2022-11-23T08:23:03.307Z,4
2022-11-23T08:28:02.575Z,5
2022-11-23T08:33:02.024Z,5
2022-11-23T08:38:02.084Z,5
2022-11-23T08:43:02.654Z,8
2022-11-23T08:48:02.682Z,7
2022-11-23T08:53:02.694Z,8
2022-11-23T08:58:02.112Z,7
2022-11-23T09:03:02.681Z,9
2022-11-23T09:08:03.407Z,7
2022-11-23T09:13:03.329Z,8
2022-11-23T09:18:03.335Z,7
2022-11-23T09:23:03.328Z,7
2022-11-23T09:28:02.757Z,5
2022-11-23T09:33:02.737Z,5
2022-11-23T09:38:02.773Z,4
2022-11-23T09:43:03.351Z,4
2022-11-23T09:48:02.778Z,4
2022-11-23T09:53:02.603Z,4
2022-11-23T09:58:02.849Z,4
2022-11-23T10:03:03.417Z,5
2022-11-23T10:08:02.964Z,3
2022-11-23T10:13:02.833Z,4
2022-11-23T10:18:03.466Z,3
2022-11-23T10:23:03.450Z,4
2022-11-23T10:28:03.534Z,3
2022-11-23T10:33:02.834Z,4
2022-11-23T10:38:02.300Z,3
2022-11-23T10:43:02.277Z,3
2022-11-23T10:48:02.961Z,3
2022-11-23T10:53:02.873Z,2
2022-11-23T10:58:02.877Z,3
2022-11-23T11:03:02.931Z,4
2022-11-23T11:08:02.353Z,3
2022-11-23T11:13:02.918Z,4
2022-11-23T11:18:03.600Z,4
2022-11-23T11:23:02.976Z,3
2022-11-23T11:28:02.504Z,3
2022-11-23T11:33:04.914Z,3
2022-11-23T11:38:02.971Z,4
2022-11-23T11:43:03.580Z,4
2022-11-23T11:48:03.697Z,3
2022-11-23T11:53:02.936Z,3
2022-11-23T11:58:02.927Z,4
2022-11-23T12:03:03.594Z,3
2022-11-23T12:08:02.979Z,3
2022-11-23T12:13:02.456Z,5
2022-11-23T12:18:02.967Z,6
2022-11-23T12:23:02.962Z,3
2022-11-23T12:28:03.773Z,2
2022-11-23T12:33:03.080Z,3
2022-11-23T12:38:02.526Z,3
2022-11-23T12:43:03.102Z,4
2022-11-23T12:48:03.151Z,3
2022-11-23T12:53:03.149Z,4
2022-11-23T12:58:03.846Z,3
2022-11-23T13:03:04.324Z,3
2022-11-23T13:08:03.297Z,3
2022-11-23T13:13:03.384Z,3
2022-11-23T13:18:03.502Z,3
2022-11-23T13:23:03.661Z,3
2022-11-23T13:28:03.936Z,3
2022-11-23T13:33:03.202Z,4
2022-11-23T13:38:02.624Z,4
2022-11-23T13:43:03.173Z,3
2022-11-23T13:48:03.125Z,3
2022-11-23T13:53:03.136Z,3
2022-11-23T13:58:03.148Z,4
2022-11-23T14:03:06.719Z,4
2022-11-23T14:08:03.352Z,4
2022-11-23T14:13:03.266Z,6
2022-11-23T14:18:03.917Z,5
2022-11-23T14:23:03.293Z,4
2022-11-23T14:28:03.934Z,3
2022-11-23T14:33:04.196Z,4
2022-11-23T14:38:03.194Z,4
2022-11-23T14:43:03.235Z,4
2022-11-23T14:48:03.853Z,4
2022-11-23T14:53:03.277Z,9
2022-11-23T14:58:03.224Z,3
2022-11-23T15:03:15.490Z,3
2022-11-23T15:08:03.228Z,3
2022-11-23T15:13:02.737Z,3
2022-11-23T15:18:03.839Z,3
2022-11-23T15:23:03.304Z,3
2022-11-23T15:28:03.301Z,3
2022-11-23T15:33:02.887Z,4
2022-11-23T15:38:03.283Z,4
2022-11-23T15:43:03.503Z,4
2022-11-23T15:48:03.586Z,4
2022-11-23T15:53:03.380Z,4
2022-11-23T15:58:02.871Z,4
2022-11-23T16:03:03.424Z,4
2022-11-23T16:08:03.373Z,4
2022-11-23T16:13:03.399Z,4
2022-11-23T16:18:03.400Z,5
2022-11-23T16:23:03.456Z,3
2022-11-23T16:28:02.915Z,3
2022-11-23T16:33:03.547Z,4
2022-11-23T16:38:04.264Z,3
2022-11-23T16:43:03.484Z,4
2022-11-23T16:48:03.574Z,4
2022-11-23T16:53:03.536Z,5
2022-11-23T16:58:03.518Z,4
2022-11-23T17:03:03.507Z,4
2022-11-23T17:08:04.083Z,5
2022-11-23T17:13:03.548Z,4
2022-11-23T17:18:03.028Z,4
2022-11-23T17:23:03.050Z,4
2022-11-23T17:28:04.174Z,4
2022-11-23T17:33:03.532Z,5
2022-11-23T17:38:02.993Z,5
2022-11-23T17:43:09.701Z,5
2022-11-23T17:48:03.941Z,4
2022-11-23T17:53:04.305Z,5
2022-11-23T17:58:03.656Z,5
2022-11-23T18:03:03.693Z,5
2022-11-23T18:08:03.663Z,4
2022-11-23T18:13:03.705Z,4
2022-11-23T18:18:04.932Z,4
2022-11-23T18:23:03.770Z,5
2022-11-23T18:28:03.709Z,4
2022-11-23T18:33:03.077Z,5
2022-11-23T18:38:03.637Z,5
2022-11-23T18:43:03.159Z,4
2022-11-23T18:48:03.638Z,4
2022-11-23T18:53:03.718Z,5
2022-11-23T18:58:04.315Z,5
2022-11-23T19:03:04.346Z,4
2022-11-23T19:08:04.469Z,5
2022-11-23T19:13:05.891Z,5
2022-11-23T19:18:04.400Z,5
2022-11-23T19:23:03.720Z,5
2022-11-23T19:28:04.309Z,5
2022-11-23T19:33:04.355Z,6
2022-11-23T19:38:03.236Z,5
2022-11-23T19:43:03.332Z,5
2022-11-23T19:48:03.829Z,5
2022-11-23T19:53:12.154Z,4
2022-11-23T19:58:03.857Z,4
2022-11-23T20:03:03.962Z,4
2022-11-23T20:08:04.527Z,4
2022-11-23T20:13:03.884Z,5
2022-11-23T20:18:04.514Z,5
2022-11-23T20:23:04.582Z,4
2022-11-23T20:28:03.895Z,4
2022-11-23T20:33:03.345Z,4
2022-11-23T20:38:03.379Z,4
2022-11-23T20:43:03.382Z,4
2022-11-23T20:48:03.945Z,4
2022-11-23T20:53:03.980Z,5
2022-11-23T20:58:04.728Z,4
2022-11-23T21:03:04.077Z,5
2022-11-23T21:08:03.968Z,5
2022-11-23T21:13:03.995Z,4
2022-11-23T21:18:04.620Z,4
2022-11-23T21:23:03.468Z,5
2022-11-23T21:28:04.050Z,5
2022-11-23T21:33:04.099Z,5
2022-11-23T21:38:04.045Z,4
2022-11-23T21:43:03.957Z,4
2022-11-23T21:48:04.065Z,5
2022-11-23T21:53:03.960Z,5
2022-11-23T21:58:03.960Z,6
2022-11-23T22:03:04.626Z,6
2022-11-23T22:08:29.785Z,5
2022-11-23T22:13:04.608Z,5
2022-11-23T22:18:03.521Z,6
2022-11-23T22:23:04.088Z,5
2022-11-23T22:28:04.684Z,5
2022-11-23T22:33:04.664Z,6
2022-11-23T22:38:03.741Z,6
2022-11-23T22:43:03.610Z,4
2022-11-23T22:48:04.722Z,6
2022-11-23T22:53:04.244Z,5
2022-11-23T22:58:04.724Z,6
2022-11-23T23:03:04.233Z,6
2022-11-23T23:08:04.734Z,5
2022-11-23T23:13:04.707Z,5
2022-11-23T23:18:04.163Z,4
2022-11-23T23:23:03.655Z,4
2022-11-23T23:28:04.881Z,5
2022-11-23T23:33:03.644Z,4
2022-11-23T23:38:03.677Z,6
2022-11-23T23:43:04.305Z,5
2022-11-23T23:48:04.302Z,4
2022-11-23T23:53:04.300Z,6
2022-11-23T23:58:04.873Z,7
